Date,TemperatureHighF,TemperatureAvgF,TemperatureLowF,DewpointHighF,DewpointAvgF,DewpointLowF,HumidityHigh,HumidityAvg,HumidityLow,PressureMaxIn,PressureMinIn,WindSpeedMaxMPH,WindSpeedAvgMPH,GustSpeedMaxMPH,PrecipitationSumIn
2013-1-1,45.0,41.0,37.0,32.0,28.2,25.0,70,60,52,30.01,29.88,18,7,18,0.00
2013-1-2,37.0,31.1,27.0,25.0,16.1,14.0,68,53,40,30.23,30.00,14,6,17,0.00
2013-1-3,34.0,28.6,18.0,25.0,17.9,9.0,92,64,34,30.24,30.14,12,5,0,0.00
2013-1-4,39.0,35.0,32.0,25.0,22.3,19.0,74,60,47,30.19,30.06,20,9,25,0.00
2013-1-5,41.0,33.6,27.0,28.0,22.1,19.0,86,64,41,30.37,30.11,14,6,22,0.00
2013-1-6,50.0,37.3,28.0,36.0,29.9,23.0,100,77,34,30.26,30.03,10,3,0,0.00
2013-1-7,48.0,37.9,25.0,32.0,27.2,23.0,92,67,42,30.44,30.10,16,5,20,0.00
2013-1-8,50.0,35.9,23.0,37.0,29.5,21.0,100,80,49,30.47,30.39,14,3,0,0.00
2013-1-9,57.0,46.6,32.0,46.0,38.9,32.0,100,76,50,30.41,30.20,16,5,16,0.00
2013-1-10,50.0,42.7,30.0,36.0,29.1,27.0,86,59,39,30.56,30.32,15,5,17,0.00
2013-1-11,54.0,41.1,28.0,54.0,39.0,27.0,100,92,66,30.53,30.08,16,4,20,0.00
2013-1-12,55.0,47.6,45.0,50.0,46.8,45.0,100,97,81,30.18,30.07,10,4,16,0.00
2013-1-13,54.0,47.1,41.0,54.0,47.0,41.0,100,100,93,30.17,30.03,13,6,0,0.00
2013-1-14,61.0,54.6,45.0,61.0,51.5,41.0,100,90,62,30.25,29.99,14,6,18,0.00
2013-1-15,45.0,38.1,36.0,45.0,38.1,36.0,100,100,93,30.34,30.16,14,6,17,0.00
2013-1-16,43.0,38.2,36.0,43.0,38.2,36.0,100,100,100,30.16,29.85,23,6,24,0.00
2013-1-17,43.0,39.5,36.0,41.0,37.7,32.0,100,93,70,30.12,29.98,12,3,0,0.00
2013-1-18,36.0,31.5,21.0,36.0,22.0,9.0,100,72,31,30.53,30.01,16,6,27,0.00
2013-1-19,52.0,39.6,23.0,32.0,25.3,18.0,85,58,32,30.48,30.02,21,11,24,0.00
2013-1-20,57.0,46.0,36.0,32.0,27.0,14.0,70,49,27,30.08,29.80,24,13,28,0.00
2013-1-21,39.0,32.4,25.0,28.0,16.7,9.0,100,54,29,30.14,29.79,22,6,25,0.00
2013-1-22,27.0,20.8,14.0,23.0,3.5,-2.0,86,47,32,30.28,29.88,23,11,29,0.00
2013-1-23,25.0,17.1,9.0,3.0,0.1,-2.0,66,46,32,30.33,30.19,20,7,24,0.00
2013-1-24,28.0,20.1,16.0,5.0,1.3,-2.0,61,44,27,30.47,30.12,25,8,28,0.00
2013-1-25,25.0,17.8,9.0,19.0,7.9,1.0,100,67,35,30.49,30.08,10,3,0,0.00
2013-1-26,30.0,20.6,7.0,18.0,12.3,7.0,100,72,46,30.42,30.08,20,7,24,0.00
2013-1-27,37.0,23.9,12.0,19.0,13.0,7.0,92,65,34,30.58,30.42,13,4,17,0.00
2013-1-28,41.0,31.8,18.0,39.0,30.4,16.0,100,94,86,30.53,30.06,16,5,17,0.00
2013-1-29,59.0,45.2,37.0,50.0,42.8,37.0,100,92,62,30.17,30.05,9,4,0,0.00
2013-1-30,64.0,54.9,46.0,57.0,53.0,46.0,100,94,77,30.07,29.44,31,13,47,0.00
2013-1-31,59.0,42.3,30.0,59.0,21.4,7.0,100,44,31,29.92,29.42,35,18,48,0.00
2013-2-1,32.0,27.5,19.0,28.0,12.7,5.0,100,55,36,30.33,29.85,29,10,31,0.00
2013-2-2,28.0,22.5,9.0,27.0,11.0,3.0,100,62,45,30.38,30.07,17,6,18,0.00
2013-2-3,37.0,28.7,23.0,28.0,24.1,18.0,100,84,47,30.07,29.82,12,-10,0,0.00
2013-2-4,32.0,28.0,19.0,28.0,14.7,9.0,86,58,39,30.09,29.87,21,8,27,0.00
2013-2-5,41.0,34.9,30.0,34.0,29.4,23.0,100,81,56,29.97,29.88,8,2,0,0.00
2013-2-6,45.0,33.4,23.0,32.0,26.0,21.0,100,77,42,30.36,29.92,23,7,27,0.00
2013-2-7,41.0,31.5,19.0,34.0,22.0,16.0,100,69,41,30.49,30.24,16,6,18,0.00
2013-2-8,45.0,40.9,34.0,45.0,39.9,32.0,100,96,75,30.24,29.59,21,12,25,0.00
2013-2-9,37.0,31.1,27.0,34.0,20.2,14.0,100,65,40,30.36,29.76,28,16,38,0.00
2013-2-10,39.0,29.1,14.0,32.0,15.7,7.0,92,59,25,30.51,30.34,12,-9,16,0.00
2013-2-11,57.0,48.4,36.0,57.0,48.0,32.0,100,98,86,30.34,29.69,24,10,29,0.00
2013-2-12,54.0,43.3,30.0,50.0,30.5,27.0,100,63,37,29.99,29.75,23,8,25,0.00
2013-2-13,46.0,35.0,25.0,37.0,30.9,25.0,100,87,52,29.99,29.64,16,6,23,0.00
2013-2-14,46.0,36.4,30.0,37.0,33.3,30.0,100,90,61,30.05,29.70,12,5,0,0.00
2013-2-15,57.0,40.5,27.0,41.0,34.0,27.0,100,80,43,30.07,29.93,12,5,0,0.00
2013-2-16,41.0,36.1,28.0,36.0,33.8,25.0,100,90,64,29.97,29.74,14,8,17,0.00
2013-2-17,32.0,29.4,25.0,25.0,9.8,1.0,80,43,33,30.09,29.71,28,15,36,0.00
2013-2-18,37.0,28.1,19.0,19.0,8.9,1.0,73,44,29,30.33,30.08,23,10,32,0.00
2013-2-19,50.0,41.8,30.0,48.0,35.6,16.0,100,79,50,30.24,29.74,15,9,21,0.00
2013-2-20,39.0,32.7,25.0,28.0,15.5,9.0,69,49,34,30.09,29.81,27,12,32,0.00
2013-2-21,37.0,29.4,23.0,16.0,12.5,9.0,58,49,37,30.29,30.07,29,11,32,0.00
2013-2-22,39.0,32.4,25.0,36.0,24.5,16.0,100,73,58,30.41,30.25,15,6,16,0.00
2013-2-23,48.0,42.9,36.0,48.0,42.9,36.0,100,100,100,30.25,29.76,15,7,17,0.00
2013-2-24,52.0,40.9,32.0,41.0,31.7,19.0,100,73,42,30.04,29.75,22,11,30,0.00
2013-2-25,32.0,29.4,27.0,27.0,23.0,19.0,100,78,59,30.25,30.04,10,-13,0,0.00
2013-2-26,48.0,37.3,23.0,48.0,34.9,23.0,100,92,70,30.26,29.71,23,10,31,0.00
2013-2-27,57.0,48.9,43.0,50.0,44.6,37.0,100,87,50,29.71,29.49,22,8,24,0.00
2013-2-28,46.0,40.7,36.0,43.0,35.7,27.0,100,84,48,29.69,29.60,12,4,21,0.00
2013-3-1,45.0,39.1,32.0,32.0,29.5,27.0,100,71,48,29.82,29.67,17,8,23,0.00
2013-3-2,41.0,36.0,28.0,27.0,23.9,21.0,86,61,44,29.84,29.75,15,7,18,0.00
2013-3-3,39.0,33.8,30.0,21.0,18.2,14.0,63,53,38,29.82,29.73,22,10,24,0.00
2013-3-4,41.0,34.9,32.0,21.0,18.4,16.0,63,51,41,29.98,29.82,27,13,30,0.00
2013-3-5,46.0,34.8,27.0,34.0,24.0,19.0,100,66,42,30.06,29.93,15,6,17,0.00
2013-3-6,41.0,38.1,34.0,39.0,37.2,34.0,100,96,80,29.93,29.56,36,21,50,0.00
2013-3-7,48.0,39.8,34.0,34.0,30.3,28.0,100,71,46,30.08,29.83,24,14,32,0.00
2013-3-8,41.0,35.5,32.0,37.0,33.0,28.0,100,91,64,30.19,30.03,21,12,27,0.00
2013-3-9,59.0,41.8,28.0,32.0,24.4,18.0,92,55,19,30.32,30.17,18,0,20,0.00
2013-3-10,48.0,36.1,25.0,39.0,32.6,25.0,100,88,61,30.38,30.31,14,5,17,0.00
2013-3-11,57.0,44.7,32.0,50.0,42.5,32.0,100,93,71,30.32,30.08,17,7,22,0.00
2013-3-12,55.0,52.4,41.0,55.0,50.5,36.0,100,94,70,30.09,29.73,27,13,36,0.00
2013-3-13,52.0,41.0,32.0,36.0,30.1,25.0,100,67,34,29.97,29.86,18,7,25,0.00
2013-3-14,45.0,36.7,28.0,23.0,15.9,12.0,63,43,28,30.04,29.94,27,12,32,0.00
2013-3-15,52.0,38.8,27.0,34.0,20.5,10.0,80,48,29,30.07,29.79,22,8,27,0.00
2013-3-16,45.0,38.4,32.0,37.0,32.6,25.0,100,80,48,29.91,29.73,16,7,20,0.00
2013-3-17,41.0,36.4,30.0,36.0,26.0,19.0,100,69,41,30.29,29.91,18,6,20,0.00
2013-3-18,48.0,38.1,30.0,48.0,30.5,18.0,100,75,51,30.36,29.86,21,9,24,0.00
2013-3-19,54.0,46.1,37.0,48.0,40.5,19.0,100,84,41,29.88,29.72,16,6,24,0.00
2013-3-20,50.0,40.3,27.0,30.0,20.5,16.0,86,47,25,29.98,29.80,24,9,28,0.00
2013-3-21,41.0,33.3,28.0,32.0,23.2,9.0,100,69,37,29.83,29.68,16,8,22,0.00
2013-3-22,45.0,34.5,27.0,19.0,17.1,9.0,63,49,35,29.97,29.83,17,9,28,0.00
2013-3-23,50.0,38.0,27.0,23.0,20.2,19.0,79,50,31,29.99,29.88,22,8,30,0.00
2013-3-24,46.0,35.1,23.0,28.0,22.1,18.0,92,61,33,29.99,29.67,14,4,18,0.00
2013-3-25,37.0,34.2,32.0,37.0,33.8,27.0,100,99,64,29.70,29.42,16,9,24,0.00
2013-3-26,52.0,40.5,32.0,37.0,32.3,27.0,100,76,40,29.92,29.64,10,6,16,0.00
2013-3-27,54.0,43.1,32.0,34.0,28.4,23.0,100,58,32,30.04,29.92,21,9,25,0.00
2013-3-28,50.0,41.9,34.0,30.0,27.8,27.0,80,58,39,30.16,30.03,22,8,24,0.00
2013-3-29,55.0,44.4,32.0,30.0,27.5,25.0,86,53,32,30.20,30.11,15,6,22,0.00
2013-3-30,59.0,43.0,27.0,34.0,28.0,23.0,100,61,26,30.22,30.11,16,5,24,0.00
2013-3-31,55.0,44.6,32.0,52.0,39.3,-99.9,100,87,50,30.18,29.73,22,8,29,0.00
2013-4-1,66.0,50.9,37.0,50.0,41.0,18.0,100,72,39,29.93,29.68,23,8,32,0.00
2013-4-2,48.0,38.8,25.0,25.0,16.2,12.0,79,41,24,30.14,29.92,24,8,29,0.00
2013-4-3,50.0,39.7,25.0,18.0,13.3,9.0,73,35,21,30.33,30.13,23,10,28,0.00
2013-4-4,48.0,37.8,23.0,32.0,20.1,10.0,73,50,26,30.43,30.14,13,5,20,0.00
2013-4-5,63.0,47.0,37.0,46.0,33.7,23.0,100,68,21,30.14,29.77,17,6,25,0.00
2013-4-6,54.0,42.1,32.0,32.0,23.3,14.0,93,49,23,30.34,29.97,16,7,21,0.00
2013-4-7,57.0,45.7,28.0,46.0,38.0,28.0,100,76,50,30.34,30.05,23,9,33,0.00
2013-4-8,75.0,60.4,50.0,54.0,48.6,45.0,87,67,38,30.10,30.02,13,7,17,0.00
2013-4-9,82.0,69.7,57.0,55.0,54.1,52.0,87,59,37,30.06,29.95,18,9,22,0.00
2013-4-10,88.0,74.3,61.0,57.0,55.2,52.0,82,54,33,29.97,29.80,21,10,31,0.00
2013-4-11,77.0,58.9,46.0,59.0,53.4,46.0,100,83,50,29.94,29.84,23,10,27,0.00
2013-4-12,72.0,53.8,46.0,66.0,53.4,46.0,100,99,78,29.91,29.63,23,9,25,0.00
2013-4-13,63.0,51.3,41.0,46.0,41.5,37.0,100,73,39,29.97,29.69,16,7,20,0.00
2013-4-14,64.0,52.9,36.0,50.0,38.4,30.0,100,64,27,30.18,29.97,20,6,29,0.00
2013-4-15,57.0,50.5,46.0,46.0,42.8,36.0,93,75,57,30.36,30.15,18,8,23,0.00
2013-4-16,66.0,57.2,45.0,57.0,51.4,45.0,100,82,63,30.36,30.17,18,9,24,0.00
2013-4-17,73.0,59.7,46.0,63.0,52.5,39.0,100,78,51,30.29,30.13,13,7,0,0.00
2013-4-18,68.0,57.3,46.0,61.0,54.2,43.0,100,90,71,30.31,30.10,16,8,20,0.00
2013-4-19,73.0,64.2,59.0,66.0,62.3,59.0,100,94,73,30.10,29.71,27,13,35,0.00
2013-4-20,64.0,53.0,46.0,64.0,38.8,27.0,100,64,30,30.31,29.73,20,10,28,0.00
2013-4-21,54.0,42.8,32.0,32.0,26.0,19.0,100,53,27,30.61,30.31,15,6,20,0.00
2013-4-22,52.0,42.9,30.0,45.0,36.6,30.0,100,79,57,30.61,30.41,23,12,31,0.00
2013-4-23,50.0,46.3,45.0,46.0,43.0,39.0,100,88,76,30.42,30.13,23,11,24,0.00
2013-4-24,66.0,52.0,36.0,55.0,47.9,36.0,100,86,55,30.15,29.89,20,8,24,0.00
2013-4-25,64.0,54.6,41.0,57.0,35.7,27.0,100,53,23,30.30,29.91,23,9,29,0.00
2013-4-26,66.0,52.2,36.0,45.0,32.8,27.0,100,55,23,30.42,30.30,20,5,23,0.00
2013-4-27,64.0,51.2,36.0,45.0,36.3,30.0,100,61,29,30.44,30.33,12,5,0,0.00
2013-4-28,68.0,52.7,36.0,52.0,36.6,-99.9,100,64,24,30.33,30.22,14,4,0,0.00
2013-4-29,57.0,54.7,54.0,57.0,54.3,50.0,100,98,81,30.23,30.14,13,7,17,0.00
2013-4-30,66.0,57.0,50.0,54.0,49.5,46.0,100,78,52,30.30,30.14,24,12,28,0.00
2013-5-1,63.0,51.6,41.0,48.0,44.8,36.0,100,80,36,30.46,30.29,24,10,28,0.00
2013-5-2,64.0,52.1,39.0,50.0,42.9,39.0,100,75,42,30.45,30.34,15,6,18,0.00
2013-5-3,57.0,50.8,41.0,48.0,42.5,36.0,100,75,47,30.43,30.34,25,11,30,0.00
2013-5-4,63.0,51.6,41.0,48.0,43.0,37.0,100,75,45,30.37,30.24,20,9,22,0.00
2013-5-5,57.0,49.8,45.0,46.0,41.7,39.0,100,74,54,30.27,30.21,20,10,25,0.00
2013-5-6,59.0,52.1,45.0,55.0,51.1,45.0,100,96,82,30.22,30.13,20,9,23,0.00
2013-5-7,63.0,56.4,52.0,61.0,56.2,52.0,100,99,87,30.13,30.02,18,9,20,0.00
2013-5-8,72.0,60.8,55.0,64.0,56.9,52.0,100,88,56,30.05,29.97,14,5,16,0.00
2013-5-9,73.0,62.0,55.0,63.0,56.5,55.0,100,85,53,30.01,29.92,18,5,20,0.00
2013-5-10,81.0,66.5,54.0,63.0,55.2,-99.9,100,73,41,30.03,29.91,13,5,16,0.00
2013-5-11,79.0,66.2,61.0,70.0,63.9,57.0,100,93,68,29.95,29.73,18,6,23,0.00
2013-5-12,70.0,60.4,48.0,63.0,46.3,-99.9,100,66,25,29.99,29.71,23,8,28,0.00
2013-5-13,59.0,48.8,32.0,41.0,31.6,25.0,100,56,26,30.13,29.99,21,6,27,0.00
2013-5-14,61.0,49.0,32.0,45.0,32.6,27.0,100,57,30,30.19,30.08,18,7,27,0.00
2013-5-15,75.0,62.4,50.0,63.0,53.2,45.0,100,73,52,30.12,29.73,17,7,22,0.00
2013-5-16,82.0,67.5,59.0,66.0,39.5,-99.9,100,70,29,29.86,29.73,15,5,21,0.00
2013-5-17,81.0,65.5,54.0,63.0,45.5,-99.9,100,59,24,30.20,29.86,14,6,20,0.00
2013-5-18,68.0,61.6,55.0,61.0,54.1,46.0,100,77,56,30.30,30.20,16,6,18,0.00
2013-5-19,63.0,60.4,57.0,63.0,60.4,57.0,100,100,100,30.27,30.15,15,8,21,0.00
2013-5-20,81.0,70.7,63.0,72.0,67.4,63.0,100,90,65,30.17,30.01,13,6,18,0.00
2013-5-21,82.0,72.0,64.0,72.0,67.9,64.0,100,88,61,30.03,29.91,16,7,20,0.00
2013-5-22,82.0,73.0,66.0,73.0,70.1,66.0,100,91,65,29.96,29.88,20,9,23,0.00
2013-5-23,81.0,71.1,64.0,72.0,68.4,64.0,100,91,69,29.95,29.80,18,10,24,0.00
2013-5-24,68.0,58.6,46.0,68.0,56.3,37.0,100,92,61,30.03,29.73,23,9,28,0.00
2013-5-25,63.0,53.8,45.0,41.0,36.8,32.0,87,55,31,30.10,29.99,24,13,30,0.00
2013-5-26,72.0,56.4,39.0,46.0,38.2,36.0,100,55,28,30.21,30.08,27,8,28,0.00
2013-5-27,73.0,58.3,39.0,54.0,44.0,36.0,100,66,28,30.28,30.19,13,3,16,0.00
2013-5-28,68.0,60.5,50.0,64.0,59.4,50.0,100,96,82,30.24,30.12,13,4,0,0.00
2013-5-29,88.0,75.1,64.0,70.0,66.5,59.0,100,76,51,30.14,30.09,17,9,24,0.00
2013-5-30,90.0,78.6,70.0,72.0,67.9,64.0,100,71,43,30.19,30.12,15,8,17,0.00
2013-5-31,90.0,77.5,66.0,72.0,68.1,64.0,100,75,43,30.18,30.06,15,7,18,0.00
2013-6-1,90.0,77.7,68.0,72.0,69.7,66.0,100,77,51,30.08,29.97,18,10,22,0.00
2013-6-2,88.0,76.7,68.0,72.0,67.3,-99.9,100,78,51,29.98,29.86,22,10,28,0.00
2013-6-3,75.0,71.0,66.0,73.0,70.9,66.0,100,100,88,29.93,29.82,10,5,21,0.00
2013-6-4,75.0,66.2,54.0,68.0,52.9,45.0,100,67,33,30.12,29.89,17,6,17,0.00
2013-6-5,75.0,62.2,46.0,63.0,52.4,46.0,100,74,35,30.20,30.11,10,4,0,0.00
2013-6-6,73.0,63.7,50.0,66.0,59.8,50.0,100,89,56,30.14,29.97,20,7,23,0.00
2013-6-7,72.0,67.8,64.0,72.0,67.8,64.0,100,100,100,29.97,29.52,18,8,25,0.00
2013-6-8,75.0,68.5,63.0,73.0,66.8,46.0,100,95,55,30.09,29.52,17,6,24,0.00
2013-6-9,81.0,70.1,57.0,64.0,54.9,45.0,62,58,55,30.21,30.09,10,4,0,0.00
2013-6-10,75.0,69.7,64.0,61.0,54.5,48.0,60,58,55,30.18,29.85,16,8,23,0.00
2013-6-11,84.0,75.8,68.0,68.0,59.9,54.0,61,58,56,29.85,29.73,17,9,31,0.00
2013-6-12,86.0,75.8,68.0,77.0,61.3,54.0,100,61,55,29.86,29.80,16,7,21,0.00
2013-6-13,88.0,71.4,64.0,88.0,69.3,57.0,100,94,61,29.87,29.43,18,7,27,0.00
2013-6-14,73.0,61.8,55.0,57.0,47.4,41.0,68,58,54,29.94,29.48,23,8,23,0.00
2013-6-15,82.0,67.6,54.0,77.0,55.9,39.0,100,67,54,30.05,29.94,14,5,20,0.00
2013-6-16,84.0,70.2,57.0,82.0,66.9,45.0,100,90,58,30.04,29.87,17,5,30,0.00
2013-6-17,86.0,74.1,64.0,82.0,68.6,55.0,100,84,56,29.97,29.90,15,5,17,0.00
2013-6-18,81.0,69.6,63.0,81.0,69.6,63.0,100,100,100,29.94,29.80,20,5,0,0.00
2013-6-19,73.0,66.0,55.0,73.0,66.0,55.0,100,100,100,30.18,29.85,14,6,0,0.00
2013-6-30,82.0,74.8,70.0,77.0,73.9,70.0,100,97,78,29.91,29.73,14,6,21,0.00
2013-7-1,79.0,73.4,73.0,77.0,73.4,73.0,100,100,94,30.03,29.91,13,8,20,0.00
2013-7-2,77.0,74.1,73.0,77.0,74.1,73.0,100,100,100,30.21,30.07,14,9,18,0.00
2013-7-3,81.0,73.5,68.0,81.0,73.5,68.0,100,100,100,30.24,30.22,10,5,0,0.00
2013-7-4,90.0,80.2,72.0,79.0,74.4,70.0,100,84,58,30.29,30.22,16,8,17,0.00
2013-7-5,84.0,74.4,70.0,77.0,72.1,68.0,100,93,65,30.26,30.19,15,6,16,0.00
2013-7-6,82.0,77.9,75.0,82.0,77.9,75.0,100,100,100,30.20,30.12,14,6,16,0.00
2013-7-7,81.0,77.5,77.0,81.0,77.5,77.0,100,100,100,30.13,30.04,8,6,0,0.00
2013-7-25,66.0,66.0,66.0,66.0,66.0,66.0,100,100,100,30.01,30.00,8,7,0,0.00
2013-7-26,72.0,66.6,63.0,72.0,66.6,63.0,100,100,100,30.08,30.00,7,4,0,0.00
2013-7-27,73.0,67.2,63.0,73.0,67.2,63.0,100,100,100,30.06,29.97,3,1,0,0.00
2013-7-28,79.0,70.8,63.0,79.0,70.8,63.0,100,100,100,29.99,29.93,15,5,21,0.00
2013-7-29,75.0,68.9,61.0,75.0,68.9,61.0,100,100,100,30.14,29.97,8,3,0,0.00
2013-7-30,59.0,57.8,57.0,59.0,57.8,57.0,100,100,100,30.16,30.14,2,1,0,0.00
2013-7-31,70.0,61.0,59.0,70.0,61.0,59.0,100,100,100,30.17,30.15,0,0,0,0.00
2013-8-4,72.0,64.4,63.0,72.0,64.4,63.0,100,100,100,29.99,29.88,7,2,0,0.00
2013-8-5,63.0,60.6,55.0,63.0,60.6,55.0,100,100,100,30.07,29.99,7,4,0,0.00
2013-8-6,73.0,64.2,55.0,73.0,64.2,55.0,100,100,100,30.13,30.06,6,2,0,0.00
2013-8-7,75.0,70.7,66.0,75.0,70.7,66.0,100,100,100,30.14,30.07,14,6,0,0.00
2013-8-8,77.0,73.5,72.0,77.0,73.5,72.0,100,100,100,30.09,30.04,12,7,16,0.00
2013-8-9,81.0,76.3,75.0,79.0,76.2,75.0,100,100,94,30.00,29.86,12,7,0,0.00
2013-8-10,77.0,72.2,66.0,77.0,72.2,66.0,100,100,100,30.07,29.92,12,5,0,0.00
2013-10-20,-200.0,0.0,200.0,-99.9,-99.9,-99.9,0,0,100,29.83,29.83,12,12,17,0.00
2013-10-21,46.0,46.0,46.0,45.0,45.0,45.0,93,93,93,30.05,30.05,1,1,0,0.00
2013-10-25,39.0,39.0,39.0,32.0,32.0,32.0,75,75,75,30.20,30.20,6,6,0,0.00
2013-10-26,59.0,59.0,59.0,32.0,32.0,32.0,35,35,35,30.07,30.07,16,16,24,0.00
2013-11-12,36.0,36.0,36.0,14.0,14.0,14.0,40,40,40,30.32,30.32,8,8,20,0.00
2013-11-15,43.0,41.0,39.0,36.0,36.0,36.0,86,80,75,30.26,30.26,7,7,0,0.00
2013-11-16,-200.0,0.0,200.0,-99.9,-99.9,-99.9,0,0,100,30.27,30.27,1,1,0,0.00
2013-11-17,64.0,64.0,64.0,57.0,57.0,57.0,77,77,77,30.04,30.04,5,5,0,0.00
2013-12-21,59.0,39.3,59.0,52.0,1.4,-99.9,76,51,76,30.06,30.01,12,10,21,0.00
2013-12-22,59.0,59.0,59.0,59.0,59.0,59.0,100,100,100,29.95,29.95,8,8,0,0.00
2013-12-23,63.0,63.0,63.0,61.0,61.0,61.0,93,93,93,30.00,30.00,7,7,0,0.00
2013-12-26,23.0,23.0,23.0,21.0,21.0,21.0,92,92,92,30.35,30.35,0,0,0,0.00